Time;durP1;ratioP1;P1;durP2;ratioP2;P2;SDS_P1;SDS_P2;PMS_P1;PMS_P2;Temp;Humidity;BMP_temperature;BMP_pressure;BME280_temperature;BME280_humidity;BME280_pressure;Samples;Min_cycle;Max_cycle;Signal;HPM_P1;HPM_P2
2021/01/12 00:00:48;;;;;;;59.38;33.95;;;5.80;99.90;;;;;;5016693;28;20029;-80
2021/01/12 00:03:14;;;;;;;55.60;31.60;;;5.80;99.90;;;;;;5024255;28;20368;-80
2021/01/12 00:05:40;;;;;;;58.20;32.78;;;5.80;99.90;;;;;;5013569;28;20110;-82
2021/01/12 00:08:08;;;;;;;56.55;32.85;;;5.90;99.90;;;;;;5023417;28;20029;-82
2021/01/12 00:10:34;;;;;;;58.72;32.42;;;5.80;99.90;;;;;;5029581;28;20028;-83
2021/01/12 00:13:00;;;;;;;59.47;31.90;;;5.90;99.90;;;;;;5027233;28;20021;-82
2021/01/12 00:15:26;;;;;;;51.42;27.50;;;5.90;99.90;;;;;;5017489;28;20034;-82
2021/01/12 00:17:52;;;;;;;51.25;28.92;;;5.90;99.90;;;;;;5012208;28;20482;-82
2021/01/12 00:20:18;;;;;;;58.65;30.67;;;5.90;99.90;;;;;;5018218;28;20025;-82
2021/01/12 00:22:44;;;;;;;51.00;29.05;;;5.90;99.90;;;;;;5014877;28;20053;-82
2021/01/12 00:25:09;;;;;;;44.97;27.67;;;5.90;99.90;;;;;;5006986;28;20022;-81
2021/01/12 00:27:35;;;;;;;57.25;29.52;;;5.90;99.90;;;;;;4989556;28;20419;-81
2021/01/12 00:30:01;;;;;;;48.65;28.52;;;5.90;99.90;;;;;;4989671;28;20085;-82
2021/01/12 00:32:28;;;;;;;48.63;25.20;;;5.90;99.90;;;;;;5004017;28;20107;-82
2021/01/12 00:34:55;;;;;;;50.78;29.35;;;5.90;99.90;;;;;;4999042;28;20387;-82
2021/01/12 00:37:22;;;;;;;53.03;28.73;;;5.90;99.90;;;;;;4997354;28;20029;-82
2021/01/12 00:39:48;;;;;;;45.03;25.50;;;5.90;99.90;;;;;;4994063;28;20030;-81
2021/01/12 00:42:14;;;;;;;51.38;28.75;;;6.00;99.90;;;;;;5006291;28;20093;-82
2021/01/12 00:44:40;;;;;;;48.95;29.48;;;6.00;99.90;;;;;;5009475;28;20033;-82
2021/01/12 00:47:07;;;;;;;54.67;28.77;;;6.00;99.90;;;;;;5005544;28;20549;-82
2021/01/12 00:49:33;;;;;;;50.17;28.92;;;6.00;99.90;;;;;;4994930;28;20056;-82
2021/01/12 00:51:58;;;;;;;51.38;30.13;;;6.00;99.90;;;;;;5011035;28;20030;-82
2021/01/12 00:54:25;;;;;;;48.55;28.20;;;6.00;99.90;;;;;;4999691;28;20030;-81
2021/01/12 00:56:54;;;;;;;53.35;29.85;;;6.00;99.90;;;;;;5002739;28;20411;-82
2021/01/12 00:59:19;;;;;;;52.30;28.23;;;6.00;99.90;;;;;;5000919;28;20037;-82
2021/01/12 01:01:46;;;;;;;50.45;28.80;;;6.00;99.90;;;;;;4999077;28;20030;-82
2021/01/12 01:04:14;;;;;;;54.28;29.75;;;6.00;99.90;;;;;;4995914;28;20391;-82
2021/01/12 01:06:40;;;;;;;48.05;27.73;;;6.00;99.90;;;;;;4997587;28;20035;-82
2021/01/12 01:09:06;;;;;;;47.92;28.38;;;6.10;99.90;;;;;;5000206;28;20023;-82
2021/01/12 01:11:32;;;;;;;50.17;28.65;;;6.10;99.90;;;;;;4994645;28;20037;-82
2021/01/12 01:13:58;;;;;;;45.60;28.35;;;6.10;99.90;;;;;;5004978;28;20084;-82
2021/01/12 01:16:34;;;;;;;44.97;28.25;;;6.00;99.90;;;;;;4998916;28;20026;-82
2021/01/12 01:19:00;;;;;;;54.00;30.52;;;6.10;99.90;;;;;;4999835;28;20026;-82
2021/01/12 01:21:25;;;;;;;46.15;27.65;;;6.10;99.90;;;;;;4993393;28;20137;-81
2021/01/12 01:23:51;;;;;;;52.53;31.33;;;6.10;99.90;;;;;;5000943;28;20121;-81
2021/01/12 01:26:18;;;;;;;43.75;25.85;;;6.10;99.90;;;;;;5002239;28;20034;-82
2021/01/12 01:28:44;;;;;;;49.13;27.27;;;6.10;99.90;;;;;;4987291;28;20092;-81
2021/01/12 01:31:09;;;;;;;49.53;28.58;;;6.20;99.90;;;;;;5008773;28;20542;-81
2021/01/12 01:33:35;;;;;;;45.40;27.45;;;6.20;99.90;;;;;;4982752;28;20172;-82
2021/01/12 01:36:01;;;;;;;50.97;27.42;;;6.10;99.90;;;;;;4984738;28;20033;-82
2021/01/12 01:38:26;;;;;;;46.55;25.05;;;6.20;99.90;;;;;;4981568;28;20080;-82
2021/01/12 01:40:57;;;;;;;46.42;27.67;;;6.20;99.90;;;;;;4961909;28;20540;-82
2021/01/12 01:43:23;;;;;;;51.58;29.33;;;6.20;99.90;;;;;;4940945;28;20180;-82
2021/01/12 01:45:48;;;;;;;54.15;29.48;;;6.20;99.90;;;;;;4942632;28;20481;-82
2021/01/12 01:48:14;;;;;;;48.38;26.95;;;6.20;99.90;;;;;;4966709;28;20081;-82
2021/01/12 01:50:40;;;;;;;48.90;29.08;;;6.20;99.90;;;;;;4969026;28;20147;-83
2021/01/12 01:53:10;;;;;;;50.60;30.33;;;6.20;99.90;;;;;;4956096;28;20019;-83
2021/01/12 01:55:37;;;;;;;47.05;27.27;;;6.20;99.90;;;;;;4955302;28;20038;-83
2021/01/12 01:58:04;;;;;;;42.58;25.73;;;6.20;99.90;;;;;;4948423;28;20081;-83
2021/01/12 02:00:31;;;;;;;45.50;26.30;;;6.20;99.90;;;;;;4961477;28;20492;-83
2021/01/12 02:03:20;;;;;;;44.78;27.27;;;6.20;99.90;;;;;;4961507;28;20484;-83
2021/01/12 02:06:06;;;;;;;51.70;28.17;;;6.20;99.90;;;;;;4942703;28;20035;-83
2021/01/12 02:08:55;;;;;;;42.05;25.90;;;6.20;99.90;;;;;;4947829;28;20041;-83
2021/01/12 02:11:24;;;;;;;40.65;25.15;;;6.20;99.90;;;;;;4965480;28;20069;-83
2021/01/12 02:13:56;;;;;;;47.38;26.88;;;6.20;99.90;;;;;;4985373;28;20022;-83
2021/01/12 02:16:23;;;;;;;41.40;25.55;;;6.30;99.90;;;;;;4987288;28;20068;-83
2021/01/12 02:18:50;;;;;;;41.17;24.48;;;6.30;99.90;;;;;;5010898;28;20034;-83
2021/01/12 02:21:15;;;;;;;42.13;24.77;;;6.30;99.90;;;;;;4980319;28;20018;-83
2021/01/12 02:23:58;;;;;;;39.85;24.13;;;6.30;99.90;;;;;;4978481;28;20470;-83
2021/01/12 02:26:25;;;;;;;40.80;23.80;;;6.30;99.90;;;;;;4983222;28;20153;-83
2021/01/12 02:28:51;;;;;;;45.47;24.05;;;6.30;99.90;;;;;;4997003;28;20112;-83
2021/01/12 02:31:17;;;;;;;38.55;22.70;;;6.30;99.90;;;;;;4987938;28;20132;-83
2021/01/12 02:33:49;;;;;;;40.33;22.88;;;6.30;99.90;;;;;;4993534;28;20098;-82
2021/01/12 02:36:20;;;;;;;37.80;21.10;;;6.30;99.90;;;;;;4981781;28;20034;-82
2021/01/12 02:38:46;;;;;;;38.90;23.42;;;6.40;99.90;;;;;;4977688;28;20022;-82
2021/01/12 02:41:18;;;;;;;37.00;22.02;;;6.40;99.90;;;;;;4984099;28;20080;-82
2021/01/12 02:43:45;;;;;;;39.58;21.73;;;6.40;99.90;;;;;;4977423;28;20041;-83
2021/01/12 02:46:13;;;;;;;35.33;21.80;;;6.40;99.90;;;;;;4987366;28;20072;-83
2021/01/12 02:48:39;;;;;;;37.17;23.02;;;6.40;99.90;;;;;;4985685;28;20087;-83
2021/01/12 02:51:06;;;;;;;37.10;23.35;;;6.40;99.90;;;;;;4978880;28;20030;-82
2021/01/12 02:53:31;;;;;;;37.40;23.38;;;6.40;99.90;;;;;;4988369;28;20034;-83
2021/01/12 02:55:57;;;;;;;41.95;23.55;;;6.40;99.90;;;;;;4985477;28;20038;-83
2021/01/12 02:58:23;;;;;;;37.08;22.17;;;6.40;99.90;;;;;;4992166;28;20034;-83
2021/01/12 03:00:48;;;;;;;37.65;23.58;;;6.40;99.90;;;;;;5011315;28;20123;-83
2021/01/12 03:03:14;;;;;;;39.03;24.23;;;6.40;99.90;;;;;;4986108;28;20070;-82
2021/01/12 03:05:39;;;;;;;38.25;24.00;;;6.40;99.90;;;;;;4976222;28;20085;-82
2021/01/12 03:08:06;;;;;;;38.58;23.25;;;6.40;99.90;;;;;;4995656;28;20113;-82
2021/01/12 03:10:31;;;;;;;41.47;24.88;;;6.40;99.90;;;;;;4980410;28;20026;-83
2021/01/12 03:12:57;;;;;;;47.97;24.17;;;6.50;99.90;;;;;;4989323;28;20041;-84
2021/01/12 03:15:22;;;;;;;42.78;24.48;;;6.40;99.90;;;;;;4991262;28;20062;-83
2021/01/12 03:17:48;;;;;;;40.35;24.02;;;6.40;99.90;;;;;;4989312;28;20034;-83
2021/01/12 03:20:14;;;;;;;38.13;24.05;;;6.50;99.90;;;;;;5009155;28;21560;-83
2021/01/12 03:22:41;;;;;;;39.03;22.85;;;6.50;99.90;;;;;;4993288;28;20038;-83
2021/01/12 03:25:08;;;;;;;38.80;24.00;;;6.40;99.90;;;;;;4982042;28;20372;-83
2021/01/12 03:27:33;;;;;;;43.15;21.98;;;6.50;99.90;;;;;;4995779;28;20050;-83
2021/01/12 03:29:59;;;;;;;39.45;22.55;;;6.50;99.90;;;;;;4982350;28;20022;-83
2021/01/12 03:32:24;;;;;;;37.25;21.65;;;6.50;99.90;;;;;;4975174;28;20031;-83
2021/01/12 03:34:50;;;;;;;36.85;21.20;;;6.50;99.90;;;;;;4977937;28;20060;-83
2021/01/12 03:37:15;;;;;;;40.78;21.58;;;6.50;99.90;;;;;;4976739;28;20132;-83
2021/01/12 03:39:41;;;;;;;41.80;23.25;;;6.60;99.90;;;;;;4979864;28;20078;-83
2021/01/12 03:42:06;;;;;;;38.00;21.25;;;6.50;99.90;;;;;;4979871;28;20034;-83
2021/01/12 03:44:32;;;;;;;36.38;20.58;;;6.50;99.90;;;;;;4983483;28;20034;-83
2021/01/12 03:46:57;;;;;;;33.15;21.42;;;6.50;99.90;;;;;;4991528;28;20045;-83
2021/01/12 03:49:23;;;;;;;33.72;19.17;;;6.50;99.90;;;;;;4984459;28;20088;-83
2021/01/12 03:51:49;;;;;;;32.53;19.83;;;6.50;99.90;;;;;;4978776;28;20434;-83
2021/01/12 03:54:15;;;;;;;33.13;19.40;;;6.50;99.90;;;;;;4989720;28;20173;-83
2021/01/12 03:56:40;;;;;;;32.33;20.10;;;6.50;99.90;;;;;;4987685;28;20038;-83
2021/01/12 03:59:06;;;;;;;32.08;19.95;;;6.60;99.90;;;;;;4978338;28;20028;-82
2021/01/12 04:01:32;;;;;;;35.85;19.42;;;6.60;99.90;;;;;;4973933;28;20116;-83
2021/01/12 04:03:57;;;;;;;32.25;19.52;;;6.60;99.90;;;;;;4984310;28;20026;-83
2021/01/12 04:06:23;;;;;;;34.50;19.75;;;6.50;99.90;;;;;;4973463;28;20030;-85
2021/01/12 04:08:48;;;;;;;33.03;18.02;;;6.60;99.90;;;;;;4972755;28;20061;-83
2021/01/12 04:11:18;;;;;;;31.05;19.17;;;6.60;99.90;;;;;;4980123;28;20030;-83
2021/01/12 04:13:44;;;;;;;30.92;18.67;;;6.60;99.90;;;;;;4983547;28;20057;-83
2021/01/12 04:16:09;;;;;;;40.00;20.48;;;6.60;99.90;;;;;;4987517;28;20026;-83
2021/01/12 04:18:35;;;;;;;30.00;18.85;;;6.60;99.90;;;;;;4998816;28;20080;-84
2021/01/12 04:21:01;;;;;;;28.67;18.27;;;6.60;99.90;;;;;;4974518;28;20030;-84
2021/01/12 04:23:28;;;;;;;36.13;20.27;;;6.60;99.90;;;;;;4980600;28;20034;-83
2021/01/12 04:25:54;;;;;;;32.22;19.52;;;6.60;99.90;;;;;;4986345;28;20084;-84
2021/01/12 04:28:19;;;;;;;35.00;20.55;;;6.50;99.90;;;;;;5004111;28;20042;-84
2021/01/12 04:30:45;;;;;;;31.42;19.40;;;6.50;99.90;;;;;;5004864;28;20034;-84
2021/01/12 04:33:11;;;;;;;34.28;19.65;;;6.60;99.90;;;;;;5002526;28;20026;-84
2021/01/12 04:35:36;;;;;;;29.80;18.77;;;6.60;99.90;;;;;;4995269;28;20489;-84
2021/01/12 04:38:02;;;;;;;33.42;17.95;;;6.60;99.90;;;;;;4998042;28;20108;-84
2021/01/12 04:40:28;;;;;;;33.70;20.05;;;6.60;99.90;;;;;;5004521;28;20030;-84
2021/01/12 04:42:57;;;;;;;32.75;20.25;;;6.60;99.90;;;;;;5001959;28;20037;-84
2021/01/12 04:45:24;;;;;;;32.05;18.73;;;6.60;99.90;;;;;;5005853;28;20029;-84
2021/01/12 04:47:49;;;;;;;34.70;20.77;;;6.60;99.90;;;;;;5003351;28;20131;-84
2021/01/12 04:50:15;;;;;;;34.10;19.52;;;6.60;99.90;;;;;;4990762;28;20475;-84
2021/01/12 04:52:45;;;;;;;35.50;20.75;;;6.60;99.90;;;;;;5002648;28;20080;-83
2021/01/12 04:55:12;;;;;;;36.70;19.60;;;6.60;99.90;;;;;;5017189;28;20113;-84
2021/01/12 04:57:37;;;;;;;35.60;20.23;;;6.60;99.90;;;;;;5010915;28;20200;-84
2021/01/12 05:00:09;;;;;;;33.25;19.35;;;6.60;99.90;;;;;;5001288;28;20495;-84
2021/01/12 05:02:35;;;;;;;33.45;20.45;;;6.60;99.90;;;;;;4998781;28;20130;-84
2021/01/12 05:05:03;;;;;;;34.88;19.50;;;6.60;99.90;;;;;;4997739;28;20450;-84
2021/01/12 05:07:28;;;;;;;30.00;18.00;;;6.60;99.90;;;;;;4993740;28;20027;-84
2021/01/12 05:09:54;;;;;;;29.85;18.45;;;6.70;99.90;;;;;;4995686;28;20390;-84
2021/01/12 05:12:21;;;;;;;31.33;19.08;;;6.70;99.90;;;;;;5009780;28;20439;-84
2021/01/12 05:14:47;;;;;;;29.88;18.63;;;6.70;99.90;;;;;;5012174;28;20053;-84
2021/01/12 05:17:19;;;;;;;37.38;19.27;;;6.60;99.90;;;;;;5012367;28;20752;-85
2021/01/12 05:19:52;;;;;;;31.45;18.40;;;6.70;99.90;;;;;;5011079;28;20475;-84
2021/01/12 05:22:18;;;;;;;30.77;17.90;;;6.70;99.90;;;;;;5000292;28;20034;-84
2021/01/12 05:24:45;;;;;;;28.77;17.55;;;6.70;99.90;;;;;;5002842;28;20018;-84
2021/01/12 05:27:11;;;;;;;34.65;20.05;;;6.60;99.90;;;;;;5011957;28;20440;-85
2021/01/12 05:29:38;;;;;;;32.55;18.15;;;6.60;99.90;;;;;;5006036;28;20121;-84
2021/01/12 05:32:06;;;;;;;35.35;18.38;;;6.60;99.90;;;;;;5001135;28;20025;-84
2021/01/12 05:34:35;;;;;;;27.42;17.52;;;6.70;99.90;;;;;;5005776;28;20107;-84
2021/01/12 05:37:03;;;;;;;28.95;16.00;;;6.70;99.90;;;;;;5002847;28;20030;-85
2021/01/12 05:39:39;;;;;;;32.03;17.30;;;6.70;99.90;;;;;;5004865;28;20136;-85
2021/01/12 05:42:08;;;;;;;27.15;16.23;;;6.70;99.90;;;;;;5004474;28;20037;-85
2021/01/12 05:44:38;;;;;;;30.73;16.05;;;6.70;99.90;;;;;;5002844;28;20117;-85
2021/01/12 05:47:04;;;;;;;23.50;15.88;;;6.70;99.90;;;;;;5010029;28;20037;-84
2021/01/12 05:49:30;;;;;;;24.00;14.98;;;6.70;99.90;;;;;;4999901;28;20379;-85
2021/01/12 05:51:56;;;;;;;29.25;17.23;;;6.70;99.90;;;;;;5002105;28;20077;-84
2021/01/12 05:54:31;;;;;;;31.55;17.27;;;6.70;99.90;;;;;;4996944;28;20475;-84
2021/01/12 05:57:03;;;;;;;26.63;16.20;;;6.60;99.90;;;;;;5003779;28;20418;-84
2021/01/12 05:59:30;;;;;;;25.58;15.07;;;6.60;99.90;;;;;;5002024;28;20022;-84
2021/01/12 06:01:57;;;;;;;22.73;14.50;;;6.70;99.90;;;;;;5005461;28;20057;-84
2021/01/12 06:04:24;;;;;;;25.02;15.32;;;6.70;99.90;;;;;;4998935;28;20490;-84
2021/01/12 06:06:52;;;;;;;25.58;16.52;;;6.60;99.90;;;;;;4999867;28;20030;-84
2021/01/12 06:09:20;;;;;;;29.17;17.02;;;6.60;99.90;;;;;;5005512;28;20036;-84
2021/01/12 06:11:49;;;;;;;26.33;16.67;;;6.60;99.90;;;;;;5012237;28;20030;-84
2021/01/12 06:14:17;;;;;;;29.48;16.50;;;6.60;99.90;;;;;;5006875;28;20029;-83
2021/01/12 06:16:44;;;;;;;26.42;16.80;;;6.60;99.90;;;;;;5007893;28;20025;-84
2021/01/12 06:19:22;;;;;;;24.88;11.68;;;6.60;99.90;;;;;;5001439;28;20498;-84
2021/01/12 06:21:54;;;;;;;9.98;5.40;;;6.60;99.90;;;;;;5004620;28;20030;-85
2021/01/12 06:24:44;;;;;;;11.35;6.07;;;6.40;99.90;;;;;;5008746;28;20022;-85
2021/01/12 06:27:12;;;;;;;8.80;4.75;;;6.40;99.90;;;;;;4914272;29;20126;-84
2021/01/12 06:29:45;;;;;;;10.55;3.92;;;6.30;99.90;;;;;;4914337;29;20071;-84
2021/01/12 06:32:15;;;;;;;8.70;2.92;;;6.30;99.90;;;;;;4922512;29;20051;-84
2021/01/12 06:34:42;;;;;;;15.32;3.50;;;6.20;99.90;;;;;;4918687;29;20045;-85
2021/01/12 06:37:10;;;;;;;4.80;2.90;;;6.20;99.90;;;;;;4929054;29;20071;-85
2021/01/12 06:39:45;;;;;;;12.02;2.72;;;6.20;99.90;;;;;;4930115;29;20059;-87
2021/01/12 06:42:12;;;;;;;11.85;2.30;;;6.20;99.90;;;;;;4913260;29;20492;-85
2021/01/12 06:44:39;;;;;;;13.18;2.83;;;6.10;99.90;;;;;;4911366;29;20043;-85
2021/01/12 06:47:07;;;;;;;12.70;2.25;;;6.10;99.90;;;;;;4911372;29;20034;-85
2021/01/12 06:49:34;;;;;;;7.88;2.60;;;6.10;99.90;;;;;;4929716;29;20027;-84
2021/01/12 06:52:01;;;;;;;16.73;2.47;;;6.10;99.90;;;;;;4914161;29;20039;-85
2021/01/12 06:54:32;;;;;;;9.73;1.98;;;6.10;99.90;;;;;;4930641;29;20031;-85
2021/01/12 06:57:00;;;;;;;10.77;1.95;;;5.80;99.90;;;;;;4923359;29;20487;-85
2021/01/12 06:59:46;;;;;;;13.00;1.77;;;5.60;99.90;;;;;;4917345;29;20102;-85
2021/01/12 07:02:18;;;;;;;10.82;1.80;;;5.30;99.90;;;;;;4913931;29;20028;-85
2021/01/12 07:05:09;;;;;;;17.00;2.38;;;5.20;99.90;;;;;;4978115;28;20026;-84
2021/01/12 07:07:47;;;;;;;8.13;1.42;;;5.10;99.90;;;;;;5004975;28;20550;-85
2021/01/12 07:10:20;;;;;;;4.45;1.60;;;5.00;99.90;;;;;;5002685;28;20034;-84
2021/01/12 07:12:47;;;;;;;21.38;3.65;;;4.90;99.90;;;;;;5005667;28;20057;-84
2021/01/12 07:15:17;;;;;;;15.98;2.20;;;4.90;99.90;;;;;;4995392;28;20713;-85
2021/01/12 07:17:47;;;;;;;16.30;2.03;;;4.90;99.90;;;;;;4999604;28;20121;-84
2021/01/12 07:20:18;;;;;;;23.23;2.40;;;4.80;99.90;;;;;;4998880;28;20073;-84
2021/01/12 07:23:04;;;;;;;15.80;2.72;;;4.80;99.90;;;;;;5001222;28;20050;-84
2021/01/12 07:25:31;;;;;;;30.80;2.85;;;4.80;99.90;;;;;;4988605;28;20026;-85
2021/01/12 07:28:26;;;;;;;35.10;4.40;;;4.80;99.90;;;;;;4975735;28;20042;-84
2021/01/12 07:30:56;;;;;;;27.35;2.05;;;4.70;99.90;;;;;;4971794;28;20046;-84
2021/01/12 07:33:23;;;;;;;26.35;2.40;;;4.70;99.90;;;;;;4976797;28;20107;-84
2021/01/12 07:35:53;;;;;;;26.35;3.33;;;4.70;99.90;;;;;;4974825;28;20041;-84
2021/01/12 07:38:24;;;;;;;34.40;2.97;;;4.70;99.90;;;;;;4991899;28;20046;-85
2021/01/12 07:40:50;;;;;;;19.40;2.38;;;4.70;99.90;;;;;;4973794;28;20030;-83
2021/01/12 07:43:21;;;;;;;19.80;2.38;;;4.70;99.90;;;;;;4975246;28;20479;-83
2021/01/12 07:45:48;;;;;;;20.25;3.45;;;4.70;99.90;;;;;;4974085;28;21463;-83
2021/01/12 07:48:15;;;;;;;25.85;2.83;;;4.80;99.90;;;;;;4973083;28;20040;-83
2021/01/12 07:50:45;;;;;;;19.60;2.72;;;4.70;99.90;;;;;;4976777;28;20042;-83
2021/01/12 07:53:11;;;;;;;40.50;3.75;;;4.70;99.90;;;;;;4989089;28;20514;-82
2021/01/12 07:55:40;;;;;;;27.67;2.80;;;4.80;99.90;;;;;;4988002;28;20038;-83
2021/01/12 07:58:06;;;;;;;22.13;2.85;;;4.80;99.90;;;;;;5000373;28;20030;-82
2021/01/12 08:00:33;;;;;;;28.95;3.33;;;4.70;99.90;;;;;;5003689;28;20572;-83
2021/01/12 08:03:00;;;;;;;18.08;3.22;;;4.80;99.90;;;;;;5000418;28;20044;-83
2021/01/12 08:05:26;;;;;;;22.02;2.92;;;4.80;99.90;;;;;;4997181;28;20026;-82
2021/01/12 08:08:06;;;;;;;18.77;3.53;;;4.80;99.90;;;;;;5015687;28;20472;-83
2021/01/12 08:10:36;;;;;;;35.17;4.03;;;4.70;99.90;;;;;;4996680;28;20033;-82
2021/01/12 08:13:09;;;;;;;22.33;4.90;;;4.70;99.90;;;;;;5004719;28;20108;-82
2021/01/12 08:15:36;;;;;;;34.17;3.70;;;4.70;99.90;;;;;;4999913;28;20034;-83
2021/01/12 08:18:19;;;;;;;30.38;3.40;;;4.70;99.90;;;;;;5003321;28;20045;-82
2021/01/12 08:20:45;;;;;;;29.45;3.63;;;4.70;99.90;;;;;;4992322;28;20022;-83
2021/01/12 08:23:13;;;;;;;18.55;3.05;;;4.80;99.90;;;;;;5004328;28;20125;-83
2021/01/12 08:25:39;;;;;;;24.40;2.33;;;4.70;99.90;;;;;;5019890;28;20017;-84
2021/01/12 08:28:08;;;;;;;36.72;3.50;;;4.70;99.90;;;;;;5023583;28;20062;-83
2021/01/12 08:30:34;;;;;;;21.80;3.05;;;4.70;99.90;;;;;;4984745;28;20045;-83
2021/01/12 08:33:12;;;;;;;26.42;4.75;;;4.70;99.90;;;;;;4981699;28;20120;-83
2021/01/12 08:35:44;;;;;;;20.35;2.90;;;4.80;99.90;;;;;;4975986;28;20038;-83
2021/01/12 08:38:12;;;;;;;34.58;4.18;;;4.70;99.90;;;;;;4978886;28;20066;-82
2021/01/12 08:40:40;;;;;;;34.75;3.60;;;4.70;99.90;;;;;;4970965;28;20034;-84
2021/01/12 08:43:18;;;;;;;17.50;2.33;;;4.70;99.90;;;;;;4982757;28;20030;-83
2021/01/12 08:45:46;;;;;;;19.02;2.75;;;4.80;99.90;;;;;;4978469;28;20026;-82
2021/01/12 08:48:15;;;;;;;26.38;3.15;;;4.70;99.90;;;;;;4982458;28;21200;-83
2021/01/12 08:50:42;;;;;;;18.48;2.70;;;4.70;99.90;;;;;;4998054;28;20098;-82
2021/01/12 08:53:08;;;;;;;30.27;3.28;;;4.70;99.90;;;;;;4981500;28;20637;-82
2021/01/12 08:55:34;;;;;;;24.80;3.78;;;4.80;99.90;;;;;;4981489;28;20031;-82
2021/01/12 08:58:01;;;;;;;26.58;5.35;;;4.80;99.90;;;;;;4982516;28;20495;-84
2021/01/12 09:00:31;;;;;;;32.92;6.85;;;4.90;99.90;;;;;;4967659;28;20030;-82
2021/01/12 09:02:59;;;;;;;26.00;3.50;;;4.80;99.90;;;;;;4979918;28;20069;-82
2021/01/12 09:05:26;;;;;;;20.42;2.50;;;4.80;99.90;;;;;;4998583;28;20035;-83
2021/01/12 09:08:23;;;;;;;18.13;2.75;;;4.90;99.90;;;;;;4981366;28;20030;-82
2021/01/12 09:10:49;;;;;;;21.30;3.15;;;4.90;99.90;;;;;;4907522;29;20052;-83
2021/01/12 09:13:16;;;;;;;23.25;2.83;;;4.90;99.90;;;;;;4891718;29;20627;-80
2021/01/12 09:15:48;;;;;;;23.92;4.05;;;4.90;99.90;;;;;;4901462;29;20490;-83
2021/01/12 09:18:17;;;;;;;37.35;6.90;;;4.90;99.90;;;;;;4887119;29;20501;-84
2021/01/12 09:20:43;;;;;;;23.52;3.75;;;5.00;99.90;;;;;;4889734;29;20040;-82
2021/01/12 09:23:13;;;;;;;45.80;5.82;;;5.00;99.90;;;;;;4885185;29;20076;-83
2021/01/12 09:25:41;;;;;;;50.25;9.93;;;4.90;99.90;;;;;;4889313;29;20098;-84
2021/01/12 09:28:17;;;;;;;32.40;6.90;;;5.00;99.90;;;;;;4901745;29;21790;-84
2021/01/12 09:30:45;;;;;;;43.22;5.32;;;5.10;99.90;;;;;;4886416;29;20060;-84
2021/01/12 09:33:22;;;;;;;26.85;4.05;;;5.10;99.90;;;;;;4899095;29;20042;-84
2021/01/12 09:35:48;;;;;;;26.20;3.60;;;5.10;99.90;;;;;;4883332;29;20139;-84
2021/01/12 09:38:14;;;;;;;26.73;4.45;;;5.10;99.90;;;;;;4888572;29;20139;-84
2021/01/12 09:40:40;;;;;;;17.85;4.40;;;5.20;99.90;;;;;;4900424;29;20147;-84
2021/01/12 09:43:05;;;;;;;16.08;4.07;;;5.20;99.90;;;;;;4891024;29;20066;-84
2021/01/12 09:45:31;;;;;;;31.30;4.75;;;5.10;99.90;;;;;;4880477;29;20036;-83
2021/01/12 09:47:56;;;;;;;32.85;5.07;;;5.10;99.90;;;;;;4958683;28;20042;-83
2021/01/12 09:50:22;;;;;;;21.83;4.28;;;5.10;99.90;;;;;;4976470;28;20117;-83
2021/01/12 09:52:48;;;;;;;28.77;4.50;;;5.10;99.90;;;;;;4973415;28;20029;-83
2021/01/12 09:55:13;;;;;;;29.45;5.20;;;5.00;99.90;;;;;;4977494;28;20057;-83
2021/01/12 09:57:39;;;;;;;45.78;7.20;;;5.00;99.90;;;;;;4979010;28;20051;-83
2021/01/12 10:00:07;;;;;;;41.63;7.53;;;5.00;99.90;;;;;;4977458;28;20490;-83
2021/01/12 10:02:32;;;;;;;38.75;5.22;;;5.00;99.90;;;;;;4974785;28;20084;-83
2021/01/12 10:04:59;;;;;;;26.10;5.53;;;5.00;99.90;;;;;;4975174;28;20398;-83
2021/01/12 10:07:24;;;;;;;33.20;6.30;;;5.00;99.90;;;;;;4977374;28;20030;-83
2021/01/12 10:09:50;;;;;;;61.35;11.52;;;5.00;99.90;;;;;;4993950;28;20030;-83
2021/01/12 10:12:15;;;;;;;36.47;7.03;;;5.10;99.90;;;;;;4981515;28;20030;-81
2021/01/12 10:14:41;;;;;;;39.30;8.00;;;5.20;99.90;;;;;;4993885;28;20010;-84
2021/01/12 10:17:08;;;;;;;39.53;7.90;;;5.80;99.90;;;;;;4997111;28;20104;-82
2021/01/12 10:19:34;;;;;;;47.08;7.07;;;6.80;99.90;;;;;;4995467;28;20017;-82
2021/01/12 10:22:00;;;;;;;29.88;4.75;;;7.60;99.90;;;;;;4976508;28;20034;-82
2021/01/12 10:24:25;;;;;;;28.75;5.18;;;8.30;99.90;;;;;;4975052;28;20446;-84
2021/01/12 10:26:55;;;;;;;20.00;3.97;;;8.60;99.90;;;;;;4980496;28;20049;-82
2021/01/12 10:29:22;;;;;;;25.70;5.28;;;8.60;99.90;;;;;;4998037;28;20758;-82
2021/01/12 10:31:49;;;;;;;33.95;5.82;;;8.80;99.90;;;;;;4997085;28;20029;-82
2021/01/12 10:34:16;;;;;;;21.42;5.55;;;9.10;99.90;;;;;;4994067;28;20075;-83
2021/01/12 10:36:42;;;;;;;29.88;4.05;;;9.60;99.90;;;;;;4994620;28;20038;-82
2021/01/12 10:39:09;;;;;;;20.38;3.60;;;9.80;99.90;;;;;;4996086;28;20081;-83
2021/01/12 10:41:39;;;;;;;41.10;5.05;;;9.80;99.90;;;;;;5001313;28;20026;-82
2021/01/12 10:44:05;;;;;;;27.50;5.53;;;10.10;99.90;;;;;;4997277;28;20467;-82
2021/01/12 10:46:31;;;;;;;24.75;5.13;;;10.30;99.90;;;;;;4998128;28;20319;-83
2021/01/12 10:48:56;;;;;;;27.23;4.75;;;10.70;99.90;;;;;;4995918;28;20046;-82
2021/01/12 10:51:22;;;;;;;23.85;3.92;;;11.10;99.90;;;;;;5000071;28;20712;-82
2021/01/12 10:53:48;;;;;;;19.38;4.13;;;11.30;99.90;;;;;;4994308;28;20032;-82
2021/01/12 10:56:17;;;;;;;23.88;4.95;;;11.30;99.90;;;;;;4997582;28;20439;-83
2021/01/12 10:58:43;;;;;;;28.40;4.82;;;11.80;99.90;;;;;;4995254;28;20064;-81
2021/01/12 11:01:13;;;;;;;28.60;4.82;;;11.90;99.90;;;;;;4966394;28;20031;-82
2021/01/12 11:03:38;;;;;;;17.73;3.80;;;11.70;99.90;;;;;;4950662;28;20206;-81
2021/01/12 11:06:04;;;;;;;36.63;4.45;;;11.40;99.90;;;;;;4948879;28;20047;-81
2021/01/12 11:08:33;;;;;;;24.42;4.20;;;11.30;99.90;;;;;;4951411;28;20112;-82
2021/01/12 11:11:01;;;;;;;19.35;3.85;;;11.30;99.90;;;;;;4951325;28;20076;-82
2021/01/12 11:13:27;;;;;;;23.35;3.92;;;11.40;99.90;;;;;;4954113;28;20055;-81
2021/01/12 11:15:56;;;;;;;23.00;3.78;;;10.90;99.90;;;;;;4954622;28;20726;-82
2021/01/12 11:18:22;;;;;;;30.65;4.57;;;11.10;99.90;;;;;;4952155;28;20042;-82
2021/01/12 11:20:48;;;;;;;22.25;5.03;;;10.80;99.90;;;;;;4951260;28;20049;-81
2021/01/12 11:23:14;;;;;;;22.20;4.07;;;10.00;99.90;;;;;;4952312;28;20550;-81
2021/01/12 11:25:40;;;;;;;25.33;4.57;;;9.40;99.90;;;;;;4966578;28;20035;-81
2021/01/12 11:28:06;;;;;;;20.33;3.47;;;9.40;99.90;;;;;;4949608;28;20996;-82
2021/01/12 11:30:32;;;;;;;16.25;3.88;;;9.30;99.90;;;;;;4951016;28;20035;-82
2021/01/12 11:32:59;;;;;;;12.50;3.30;;;9.60;99.90;;;;;;4988557;28;20065;-81
2021/01/12 11:35:25;;;;;;;15.15;2.40;;;9.90;99.90;;;;;;4990513;28;20068;-83
2021/01/12 11:37:51;;;;;;;23.08;3.13;;;9.90;99.90;;;;;;4994409;28;20038;-82
2021/01/12 11:40:17;;;;;;;14.43;1.65;;;9.90;99.90;;;;;;4997029;28;20034;-82
2021/01/12 11:42:43;;;;;;;10.60;2.05;;;9.40;99.90;;;;;;4997699;28;20029;-82
2021/01/12 11:45:09;;;;;;;12.57;1.65;;;9.30;99.90;;;;;;4996941;28;20025;-82
2021/01/12 11:47:35;;;;;;;16.35;2.42;;;9.80;99.90;;;;;;4976424;28;20069;-82
2021/01/12 11:50:08;;;;;;;20.45;4.50;;;9.80;99.90;;;;;;4980573;28;20065;-82
2021/01/12 11:52:34;;;;;;;18.77;2.17;;;9.80;99.90;;;;;;4968856;28;20046;-82
2021/01/12 11:54:59;;;;;;;8.70;1.77;;;9.80;99.90;;;;;;4940002;28;20086;-83
2021/01/12 11:57:25;;;;;;;8.20;2.05;;;9.60;99.90;;;;;;4930512;28;20074;-82
2021/01/12 11:59:50;;;;;;;16.10;2.15;;;9.20;99.90;;;;;;4926849;28;20098;-82
2021/01/12 12:02:16;;;;;;;16.05;2.47;;;9.20;99.90;;;;;;4928486;28;20046;-81
2021/01/12 12:04:42;;;;;;;16.67;2.78;;;9.50;99.90;;;;;;4938423;28;20129;-82
2021/01/12 12:07:10;;;;;;;14.40;2.30;;;9.10;99.90;;;;;;4940209;28;20074;-82
2021/01/12 12:09:38;;;;;;;14.98;1.75;;;9.00;99.90;;;;;;4942067;28;20089;-82
2021/01/12 12:12:04;;;;;;;13.43;2.45;;;9.40;99.90;;;;;;4940243;28;22026;-83
2021/01/12 12:14:30;;;;;;;10.38;3.17;;;9.60;99.90;;;;;;4940260;28;20039;-82
2021/01/12 12:16:57;;;;;;;18.42;1.90;;;9.70;99.90;;;;;;4943467;28;20046;-82
2021/01/12 12:19:25;;;;;;;15.55;2.22;;;9.50;99.90;;;;;;4941593;28;20193;-83
2021/01/12 12:21:55;;;;;;;9.85;2.30;;;9.20;99.90;;;;;;4933214;29;20039;-83
2021/01/12 12:24:26;;;;;;;4.93;1.55;;;8.90;99.90;;;;;;4944998;28;20031;-83
2021/01/12 12:26:52;;;;;;;11.98;2.15;;;8.60;99.90;;;;;;4993565;28;20052;-83
2021/01/12 12:29:19;;;;;;;17.73;1.77;;;8.30;99.90;;;;;;5001305;28;20117;-84
2021/01/12 12:31:53;;;;;;;17.20;2.58;;;8.00;99.90;;;;;;4999397;28;20119;-84
2021/01/12 12:34:19;;;;;;;20.42;2.45;;;7.90;99.90;;;;;;4997058;28;20494;-83
2021/01/12 12:36:44;;;;;;;9.65;2.13;;;7.80;99.90;;;;;;4994193;28;20034;-83
2021/01/12 12:39:10;;;;;;;17.65;2.83;;;7.40;99.90;;;;;;4991371;28;20088;-82
2021/01/12 12:41:36;;;;;;;10.02;2.25;;;7.40;99.90;;;;;;4996974;28;20037;-82
2021/01/12 12:44:01;;;;;;;20.55;2.65;;;7.30;99.90;;;;;;4996078;28;20034;-82